createdAt,value
2018-12-24T00:00:06.979Z,7.31
2018-12-24T00:01:06.744Z,7.26
2018-12-24T00:02:07.344Z,7.23
2018-12-24T00:03:06.712Z,7.26
2018-12-24T00:04:07.138Z,7.18
2018-12-24T00:05:06.654Z,7.25
2018-12-24T00:06:07.167Z,7.26
2018-12-24T00:07:06.653Z,7.22
2018-12-24T00:08:06.576Z,7.18
2018-12-24T00:09:06.552Z,7.23
2018-12-24T00:10:07.220Z,7.23
2018-12-24T00:11:06.505Z,7.25
2018-12-24T00:12:07.172Z,7.15
2018-12-24T00:13:06.466Z,7.15
2018-12-24T00:14:06.434Z,7.21
2018-12-24T00:15:06.409Z,7.13
2018-12-24T00:16:06.396Z,7.18
2018-12-24T00:17:06.884Z,7.15
2018-12-24T00:18:06.542Z,7.15
2018-12-24T00:19:06.319Z,7.22
2018-12-24T00:20:06.617Z,7.15
2018-12-24T00:21:09.624Z,7.21
2018-12-24T00:22:06.569Z,7.11
2018-12-24T00:23:06.966Z,7.18
2018-12-24T00:24:06.523Z,7.22
2018-12-24T00:25:06.181Z,7.22
2018-12-24T00:26:06.474Z,7.25
2018-12-24T00:27:06.149Z,7.23
2018-12-24T00:28:06.104Z,7.26
2018-12-24T00:29:06.115Z,7.31
2018-12-24T00:30:06.578Z,7.28
2018-12-24T00:32:06.158Z,7.31
2018-12-24T00:33:06.296Z,7.32
2018-12-24T00:34:06.287Z,7.23
2018-12-24T00:35:06.247Z,7.28
2018-12-24T00:36:05.908Z,7.15
2018-12-24T00:37:05.890Z,7.23
2018-12-24T00:38:05.864Z,7.26
2018-12-24T00:39:05.836Z,7.32
2018-12-24T00:40:06.047Z,7.26
2018-12-24T00:41:05.798Z,7.33
2018-12-24T00:42:05.762Z,7.25
2018-12-24T00:43:05.770Z,7.31
2018-12-24T00:44:05.752Z,7.31
2018-12-24T00:45:05.728Z,7.32
2018-12-24T00:46:05.875Z,7.32
2018-12-24T00:47:05.644Z,7.23
2018-12-24T00:48:07.049Z,7.22
2018-12-24T00:49:05.925Z,7.28
2018-12-24T00:50:05.600Z,7.26
2018-12-24T00:51:05.555Z,7.31
2018-12-24T00:52:06.046Z,7.29
2018-12-24T00:53:05.519Z,7.29
2018-12-24T00:54:05.504Z,7.21
2018-12-24T00:55:05.481Z,7.15
2018-12-24T00:56:05.758Z,7.18
2018-12-24T00:57:05.424Z,7.31
2018-12-24T00:58:05.382Z,7.25
2018-12-24T00:59:05.359Z,7.28
2018-12-24T01:00:05.353Z,7.28
2018-12-24T01:01:05.633Z,7.32
2018-12-24T01:02:05.326Z,7.33
2018-12-24T01:03:05.284Z,7.31
2018-12-24T01:04:05.259Z,7.32
2018-12-24T01:05:05.266Z,7.40
2018-12-24T01:06:05.194Z,7.44
2018-12-24T01:07:05.198Z,7.43
2018-12-24T01:08:05.474Z,7.43
2018-12-24T01:09:05.140Z,7.50
2018-12-24T01:10:06.522Z,7.44
2018-12-24T01:11:05.084Z,7.48
2018-12-24T01:12:05.084Z,7.41
2018-12-24T01:13:05.057Z,7.44
2018-12-24T01:14:05.039Z,7.46
2018-12-24T01:15:04.985Z,7.46
2018-12-24T01:16:05.162Z,7.51
2018-12-24T01:17:05.249Z,7.46
2018-12-24T01:18:04.927Z,7.41
2018-12-24T01:19:04.886Z,7.56
2018-12-24T01:20:04.862Z,7.48
2018-12-24T01:21:05.574Z,7.48
2018-12-24T01:22:04.831Z,7.55
2018-12-24T01:23:04.819Z,7.48
2018-12-24T01:24:04.795Z,7.46
2018-12-24T01:25:04.746Z,7.51
2018-12-24T01:26:04.727Z,7.51
2018-12-24T01:27:04.714Z,7.51
2018-12-24T01:28:04.670Z,7.61
2018-12-24T01:29:04.647Z,7.67
2018-12-24T01:30:04.625Z,7.58
2018-12-24T01:31:04.605Z,7.62
2018-12-24T01:32:04.786Z,7.59
2018-12-24T01:33:04.767Z,7.62
2018-12-24T01:34:04.555Z,7.64
2018-12-24T01:35:04.507Z,7.64
2018-12-24T01:36:04.518Z,7.62
2018-12-24T01:37:04.481Z,7.59
2018-12-24T01:38:04.634Z,7.62
2018-12-24T01:39:04.726Z,7.61
2018-12-24T01:40:04.401Z,7.66
2018-12-24T01:41:04.596Z,7.66
2018-12-24T01:42:04.648Z,7.62
2018-12-24T01:43:04.525Z,7.59
2018-12-24T01:44:04.608Z,7.64
2018-12-24T01:45:04.496Z,7.72
2018-12-24T01:46:04.259Z,7.70
2018-12-24T01:47:04.547Z,7.62
2018-12-24T01:48:04.434Z,7.62
2018-12-24T01:49:04.168Z,7.67
2018-12-24T01:50:04.156Z,7.59
2018-12-24T01:51:04.123Z,7.61
2018-12-24T01:52:04.104Z,7.62
2018-12-24T01:53:04.076Z,7.61
2018-12-24T01:54:04.049Z,7.66
2018-12-24T01:55:04.032Z,7.66
2018-12-24T01:56:04.001Z,7.69
2018-12-24T01:57:03.985Z,7.62
2018-12-24T01:58:03.953Z,7.64
2018-12-24T01:59:04.260Z,7.67
2018-12-24T02:00:04.126Z,7.69
2018-12-24T02:01:04.215Z,7.70
2018-12-24T02:02:03.901Z,7.67
2018-12-24T02:03:04.576Z,7.69
2018-12-24T02:04:03.841Z,7.62
2018-12-24T02:05:04.697Z,7.72
2018-12-24T02:06:03.972Z,7.67
2018-12-24T02:07:04.256Z,7.64
2018-12-24T02:08:04.647Z,7.70
2018-12-24T02:09:04.009Z,7.66
2018-12-24T02:10:03.877Z,7.69
2018-12-24T02:11:03.987Z,7.69
2018-12-24T02:12:03.620Z,7.69
2018-12-24T02:13:03.636Z,7.61
2018-12-24T02:14:04.117Z,7.66
2018-12-24T02:15:04.264Z,7.67
2018-12-24T02:16:03.529Z,7.67
2018-12-24T02:17:03.508Z,7.67
2018-12-24T02:18:03.485Z,7.64
2018-12-24T02:19:03.462Z,7.74
2018-12-24T02:20:03.434Z,7.72
2018-12-24T02:21:03.406Z,7.66
2018-12-24T02:22:03.379Z,7.59
2018-12-24T02:23:03.357Z,7.61
2018-12-24T02:24:03.369Z,7.77
2018-12-24T02:25:03.342Z,7.69
2018-12-24T02:26:03.295Z,7.64
2018-12-24T02:27:04.001Z,7.67
2018-12-24T02:28:03.557Z,7.75
2018-12-24T02:29:03.211Z,7.72
2018-12-24T02:30:03.401Z,7.72
2018-12-24T02:31:03.488Z,7.70
2018-12-24T02:32:03.469Z,7.74
2018-12-24T02:33:03.419Z,7.75
2018-12-24T02:34:03.093Z,7.74
2018-12-24T02:35:03.092Z,7.75
2018-12-24T02:36:03.044Z,7.70
2018-12-24T02:37:03.052Z,7.69
2018-12-24T02:38:03.015Z,7.67
2018-12-24T02:39:03.301Z,7.72
2018-12-24T02:40:02.953Z,7.75
2018-12-24T02:41:02.925Z,7.77
2018-12-24T02:42:02.914Z,7.72
2018-12-24T02:43:02.880Z,7.74
2018-12-24T02:44:03.396Z,7.75
2018-12-24T02:45:02.831Z,7.78
2018-12-24T02:46:03.341Z,7.72
2018-12-24T02:47:03.012Z,7.70
2018-12-24T02:48:02.773Z,7.77
2018-12-24T02:49:03.047Z,7.70
2018-12-24T02:50:03.342Z,7.75
2018-12-24T02:51:02.725Z,7.74
2018-12-24T02:52:02.698Z,7.75
2018-12-24T02:53:02.673Z,7.70
2018-12-24T02:54:02.738Z,7.77
2018-12-24T02:55:02.626Z,7.74
2018-12-24T02:56:02.580Z,7.69
2018-12-24T02:57:02.599Z,7.77
2018-12-24T02:58:02.546Z,7.69
2018-12-24T02:59:02.508Z,7.69
2018-12-24T03:00:02.506Z,7.70
2018-12-24T03:01:02.662Z,7.74
2018-12-24T03:02:02.452Z,7.74
2018-12-24T03:03:02.735Z,7.74
2018-12-24T03:04:02.718Z,7.69
2018-12-24T03:05:02.670Z,7.75
2018-12-24T03:06:02.331Z,7.77
2018-12-24T03:07:02.641Z,7.81
2018-12-24T03:08:02.285Z,7.77
2018-12-24T03:09:03.001Z,7.85
2018-12-24T03:10:02.240Z,7.78
2018-12-24T03:11:02.209Z,7.78
2018-12-24T03:12:02.528Z,7.85
2018-12-24T03:13:03.035Z,7.85
2018-12-24T03:14:02.168Z,7.87
2018-12-24T03:15:02.429Z,7.83
2018-12-24T03:16:02.094Z,7.78
2018-12-24T03:17:02.279Z,7.80
2018-12-24T03:18:02.087Z,7.78
2018-12-24T03:19:02.358Z,7.84
2018-12-24T03:20:02.302Z,7.87
2018-12-24T03:21:02.173Z,7.78
2018-12-24T03:22:02.286Z,7.74
2018-12-24T03:23:02.155Z,7.70
2018-12-24T03:24:01.906Z,7.72
2018-12-24T03:25:02.207Z,7.75
2018-12-24T03:26:02.198Z,7.77
2018-12-24T03:27:02.159Z,7.83
2018-12-24T03:28:01.818Z,7.72
2018-12-24T03:29:01.810Z,7.84
2018-12-24T03:30:01.769Z,7.84
2018-12-24T03:31:01.741Z,7.77
2018-12-24T03:32:01.712Z,7.70
2018-12-24T03:33:01.721Z,7.77
2018-12-24T03:34:01.668Z,7.83
2018-12-24T03:35:01.644Z,7.78
2018-12-24T03:36:01.626Z,7.77
2018-12-24T03:37:01.597Z,7.72
2018-12-24T03:38:01.569Z,7.74
2018-12-24T03:39:01.550Z,7.81
2018-12-24T03:40:01.521Z,7.75
2018-12-24T03:41:01.525Z,7.75
2018-12-24T03:42:01.813Z,7.74
2018-12-24T03:43:01.477Z,7.75
2018-12-24T03:44:01.445Z,7.74
2018-12-24T03:45:01.452Z,7.72
2018-12-24T03:46:01.407Z,7.74
2018-12-24T03:47:01.564Z,7.78
2018-12-24T03:48:01.360Z,7.75
2018-12-24T03:49:01.629Z,7.80
2018-12-24T03:50:01.307Z,7.77
2018-12-24T03:51:01.852Z,7.83
2018-12-24T03:52:01.277Z,7.77
2018-12-24T03:53:01.430Z,7.75
2018-12-24T03:54:01.202Z,7.72
2018-12-24T03:55:01.412Z,7.80
2018-12-24T03:56:01.443Z,7.74
2018-12-24T03:57:01.114Z,7.80
2018-12-24T03:58:01.103Z,7.84
2018-12-24T03:59:01.072Z,7.83
2018-12-24T04:00:01.288Z,7.80
2018-12-24T04:01:01.025Z,7.75
2018-12-24T04:02:01.005Z,7.81
2018-12-24T04:03:00.974Z,7.75
2018-12-24T04:04:00.977Z,7.70
2018-12-24T04:05:00.921Z,7.72
2018-12-24T04:06:01.228Z,7.74
2018-12-24T04:07:00.878Z,7.77
2018-12-24T04:08:00.881Z,7.72
2018-12-24T04:09:00.857Z,7.80
2018-12-24T04:10:00.874Z,7.72
2018-12-24T04:11:01.687Z,7.72
2018-12-24T04:12:00.758Z,7.72
2018-12-24T04:13:00.740Z,7.77
2018-12-24T04:14:01.030Z,7.72
2018-12-24T04:15:00.712Z,7.78
2018-12-24T04:16:00.973Z,7.75
2018-12-24T04:17:00.635Z,7.74
2018-12-24T04:18:00.620Z,7.67
2018-12-24T04:19:00.594Z,7.74
2018-12-24T04:20:01.095Z,7.78
2018-12-24T04:21:00.538Z,7.66
2018-12-24T04:22:00.516Z,7.74
2018-12-24T04:23:00.815Z,7.75
2018-12-24T04:24:00.670Z,7.67
2018-12-24T04:25:00.446Z,7.69
2018-12-24T04:26:00.624Z,7.74
2018-12-24T04:27:00.404Z,7.75
2018-12-24T04:28:00.372Z,7.67
2018-12-24T04:29:00.665Z,7.77
2018-12-24T04:30:00.535Z,7.77
2018-12-24T04:31:00.336Z,7.75
2018-12-24T04:32:00.328Z,7.72
2018-12-24T04:33:00.281Z,7.74
2018-12-24T04:34:01.661Z,7.70
2018-12-24T04:35:00.526Z,7.74
2018-12-24T04:36:00.507Z,7.75
2018-12-24T04:37:00.157Z,7.70
2018-12-24T04:38:00.139Z,7.70
2018-12-24T04:39:00.116Z,7.72
2018-12-24T04:40:00.614Z,7.74
2018-12-24T04:41:00.061Z,7.75
2018-12-24T04:42:00.364Z,7.66
2018-12-24T04:43:00.340Z,7.67
2018-12-24T04:44:00.530Z,7.75
2018-12-24T04:45:00.309Z,7.74
2018-12-24T04:45:59.949Z,7.72
2018-12-24T04:46:59.917Z,7.67
2018-12-24T04:47:59.896Z,7.64
2018-12-24T04:48:59.876Z,7.59
2018-12-24T04:49:59.846Z,7.62
2018-12-24T04:50:59.839Z,7.69
2018-12-24T04:51:59.797Z,7.59
2018-12-24T04:52:59.775Z,7.64
2018-12-24T04:54:00.069Z,7.61
2018-12-24T04:54:59.744Z,7.66
2018-12-24T04:56:00.021Z,7.69
2018-12-24T04:57:03.030Z,7.62
2018-12-24T04:57:59.659Z,7.67
2018-12-24T04:58:59.842Z,7.67
2018-12-24T04:59:59.617Z,7.67
2018-12-24T05:00:59.816Z,7.61
2018-12-24T05:01:59.884Z,7.59
2018-12-24T05:02:59.848Z,7.61
2018-12-24T05:03:59.737Z,7.67
2018-12-24T05:04:59.496Z,7.67
2018-12-24T05:05:59.474Z,7.67
2018-12-24T05:06:59.765Z,7.67
2018-12-24T05:07:59.668Z,7.67
2018-12-24T05:08:59.623Z,7.74
2018-12-24T05:09:59.380Z,7.61
2018-12-24T05:10:59.345Z,7.67
2018-12-24T05:11:59.326Z,7.70
2018-12-24T05:12:59.339Z,7.64
2018-12-24T05:13:59.276Z,7.64
2018-12-24T05:14:59.244Z,7.66
2018-12-24T05:15:59.221Z,7.74
2018-12-24T05:16:59.196Z,7.67
2018-12-24T05:17:59.172Z,7.72
2018-12-24T05:18:59.161Z,7.62
2018-12-24T05:19:59.444Z,7.59
2018-12-24T05:20:59.430Z,7.67
2018-12-24T05:21:59.405Z,7.62
2018-12-24T05:22:59.372Z,7.70
2018-12-24T05:23:59.771Z,7.67
2018-12-24T05:24:59.055Z,7.67
2018-12-24T05:25:59.297Z,7.70
2018-12-24T05:26:59.165Z,7.66
2018-12-24T05:27:59.261Z,7.67
2018-12-24T05:28:58.950Z,7.69
2018-12-24T05:30:59.188Z,7.61
2018-12-24T05:31:59.161Z,7.80
2018-12-24T05:32:59.139Z,7.64
2018-12-24T05:33:59.506Z,7.69
2018-12-24T05:34:59.018Z,7.67
2018-12-24T05:35:58.742Z,7.69
2018-12-24T05:36:58.717Z,7.70
2018-12-24T05:37:58.692Z,7.66
2018-12-24T05:38:58.679Z,7.72
2018-12-24T05:39:58.959Z,7.74
2018-12-24T05:40:58.634Z,7.64
2018-12-24T05:41:58.598Z,7.67
2018-12-24T05:42:59.189Z,7.64
2018-12-24T05:43:58.577Z,7.67
2018-12-24T05:44:58.744Z,7.61
2018-12-24T05:45:58.534Z,7.62
2018-12-24T05:46:58.497Z,7.51
2018-12-24T05:47:59.203Z,7.50
2018-12-24T05:48:58.640Z,7.50
2018-12-24T05:49:58.433Z,7.47
2018-12-24T05:50:58.706Z,7.47
2018-12-24T05:51:58.777Z,7.41
2018-12-24T05:52:58.333Z,7.39
2018-12-24T05:53:58.307Z,7.44
2018-12-24T05:54:58.296Z,7.40
2018-12-24T05:55:58.266Z,7.39
2018-12-24T05:56:58.235Z,7.44
2018-12-24T05:57:58.211Z,7.43
2018-12-24T05:58:59.137Z,7.31
2018-12-24T05:59:58.173Z,7.39
2018-12-24T06:00:58.179Z,7.40
2018-12-24T06:01:58.114Z,7.46
2018-12-24T06:02:58.089Z,7.37
2018-12-24T06:03:58.066Z,7.28
2018-12-24T06:04:58.379Z,7.28
2018-12-24T06:05:58.231Z,7.26
2018-12-24T06:06:57.994Z,7.31
2018-12-24T06:07:57.969Z,7.29
2018-12-24T06:08:58.155Z,7.25
2018-12-24T06:09:57.933Z,7.28
2018-12-24T06:10:58.512Z,7.31
2018-12-24T06:11:58.211Z,7.25
2018-12-24T06:12:58.159Z,7.31
2018-12-24T06:13:58.453Z,7.28
2018-12-24T06:14:57.843Z,7.36
2018-12-24T06:15:57.977Z,7.28
2018-12-24T06:16:58.365Z,7.31
2018-12-24T06:17:57.803Z,7.29
2018-12-24T06:18:58.028Z,7.29
2018-12-24T06:19:57.708Z,7.22
2018-12-24T06:20:57.672Z,7.14
2018-12-24T06:22:57.648Z,7.13
2018-12-24T06:23:57.829Z,7.14
2018-12-24T06:24:57.555Z,7.07
2018-12-24T06:25:57.844Z,7.04
2018-12-24T06:26:57.507Z,6.96
2018-12-24T06:27:57.517Z,6.97
2018-12-24T06:28:57.463Z,7.00
2018-12-24T06:29:57.435Z,7.00
2018-12-24T06:30:57.413Z,6.96
2018-12-24T06:31:58.117Z,6.97
2018-12-24T06:32:57.370Z,6.95
2018-12-24T06:33:59.088Z,7.03
2018-12-24T06:34:57.514Z,6.96
2018-12-24T06:35:57.313Z,6.89
2018-12-24T06:36:57.591Z,6.87
2018-12-24T06:37:57.254Z,6.80
2018-12-24T06:38:57.533Z,6.85
2018-12-24T06:39:57.451Z,6.87
2018-12-24T06:40:57.483Z,6.82
2018-12-24T06:41:57.140Z,6.78
2018-12-24T06:42:57.134Z,6.77
2018-12-24T06:44:57.081Z,6.82
2018-12-24T06:45:57.057Z,6.72
2018-12-24T06:46:57.330Z,6.67
2018-12-24T06:47:57.039Z,6.67
2018-12-24T06:48:56.977Z,6.67
2018-12-24T06:49:56.944Z,6.72
2018-12-24T06:50:57.023Z,6.67
2018-12-24T06:51:56.897Z,6.71
2018-12-24T06:52:56.878Z,6.70
2018-12-24T06:53:56.897Z,6.70
2018-12-24T06:54:56.822Z,6.65
2018-12-24T06:55:56.795Z,6.62
2018-12-24T06:56:57.729Z,6.60
2018-12-24T06:57:56.789Z,6.52
2018-12-24T06:58:56.740Z,6.47
2018-12-24T06:59:56.699Z,6.52
2018-12-24T07:00:57.416Z,6.44
2018-12-24T07:01:56.688Z,6.53
2018-12-24T07:02:56.924Z,6.53
2018-12-24T07:03:56.923Z,6.52
2018-12-24T07:04:56.829Z,6.49
2018-12-24T07:05:56.876Z,6.44
2018-12-24T07:06:57.062Z,6.43
2018-12-24T07:07:56.834Z,6.44
2018-12-24T07:08:56.799Z,6.47
2018-12-24T07:09:56.490Z,6.47
2018-12-24T07:10:56.644Z,6.46
2018-12-24T07:11:56.437Z,6.46
2018-12-24T07:12:56.408Z,6.41
2018-12-24T07:13:56.350Z,6.44
2018-12-24T07:14:56.335Z,6.44
2018-12-24T07:15:56.299Z,6.46
2018-12-24T07:16:56.284Z,6.46
2018-12-24T07:17:56.294Z,6.44
2018-12-24T07:18:56.226Z,6.50
2018-12-24T07:19:56.200Z,6.41
2018-12-24T07:20:56.178Z,6.38
2018-12-24T07:21:56.663Z,6.41
2018-12-24T07:22:56.454Z,6.43
2018-12-24T07:23:56.846Z,6.46
2018-12-24T07:24:56.105Z,6.41
2018-12-24T07:25:56.380Z,6.46
2018-12-24T07:26:56.047Z,6.44
2018-12-24T07:28:59.146Z,6.46
2018-12-24T07:29:55.953Z,6.41
2018-12-24T07:30:55.938Z,6.41
2018-12-24T07:31:55.911Z,6.47
2018-12-24T07:32:55.895Z,6.46
2018-12-24T07:33:55.868Z,6.41
2018-12-24T07:34:55.843Z,6.52
2018-12-24T07:35:55.807Z,6.35
2018-12-24T07:36:55.789Z,6.28
2018-12-24T07:37:55.767Z,6.28
2018-12-24T07:38:55.729Z,6.34
2018-12-24T07:39:55.705Z,6.39
2018-12-24T07:40:55.680Z,6.31
2018-12-24T07:41:55.654Z,6.32
2018-12-24T07:42:56.372Z,6.31
2018-12-24T07:43:55.932Z,6.31
2018-12-24T07:44:55.615Z,6.26
2018-12-24T07:45:55.772Z,6.28
2018-12-24T07:46:55.549Z,6.29
2018-12-24T07:47:55.826Z,6.28
2018-12-24T07:48:55.808Z,6.29
2018-12-24T07:49:55.778Z,6.22
2018-12-24T07:50:55.634Z,6.16
2018-12-24T07:51:55.439Z,6.10
2018-12-24T07:52:56.089Z,6.09
2018-12-24T07:53:55.355Z,6.06
2018-12-24T07:54:55.671Z,6.02
2018-12-24T07:55:55.319Z,6.05
2018-12-24T07:56:56.027Z,5.97
2018-12-24T07:57:55.590Z,5.99
2018-12-24T07:58:55.565Z,5.91
2018-12-24T07:59:55.428Z,5.91
2018-12-24T08:00:55.393Z,5.84
2018-12-24T08:01:55.363Z,5.94
2018-12-24T08:02:55.132Z,5.83
2018-12-24T08:03:55.120Z,5.88
2018-12-24T08:04:55.080Z,5.90
2018-12-24T08:05:55.107Z,5.77
2018-12-24T08:06:55.032Z,5.91
2018-12-24T08:07:55.011Z,5.77
2018-12-24T08:08:54.982Z,5.81
2018-12-24T08:09:54.986Z,5.73
2018-12-24T08:10:54.964Z,5.79
2018-12-24T08:11:55.236Z,5.79
2018-12-24T08:12:55.209Z,5.79
2018-12-24T08:13:55.186Z,5.61
2018-12-24T08:14:54.862Z,5.61
2018-12-24T08:15:55.018Z,5.67
2018-12-24T08:16:55.163Z,5.65
2018-12-24T08:17:55.067Z,5.67
2018-12-24T08:18:54.731Z,5.67
2018-12-24T08:19:55.036Z,5.69
2018-12-24T08:20:54.900Z,5.69
2018-12-24T08:21:54.894Z,5.64
2018-12-24T08:22:55.350Z,5.92
2018-12-24T08:23:55.334Z,5.83
2018-12-24T08:24:54.811Z,5.87
2018-12-24T08:25:54.559Z,5.94
2018-12-24T08:26:54.528Z,5.99
2018-12-24T08:27:54.502Z,6.07
2018-12-24T08:28:54.476Z,6.06
2018-12-24T08:29:54.451Z,6.01
2018-12-24T08:30:54.429Z,5.94
2018-12-24T08:31:54.401Z,5.77
2018-12-24T08:32:54.604Z,5.69
2018-12-24T08:33:54.360Z,5.69
2018-12-24T08:34:54.642Z,5.67
2018-12-24T08:35:54.502Z,5.65
2018-12-24T08:36:54.479Z,5.61
2018-12-24T08:37:54.378Z,5.64
2018-12-24T08:38:54.438Z,5.65
2018-12-24T08:39:54.529Z,5.73
2018-12-24T08:40:54.178Z,5.72
2018-12-24T08:41:54.162Z,5.70
2018-12-24T08:42:54.461Z,5.76
2018-12-24T08:43:54.437Z,5.73
2018-12-24T08:44:54.128Z,5.83
2018-12-24T08:45:54.585Z,5.79
2018-12-24T08:46:54.541Z,5.76
2018-12-24T08:47:54.030Z,5.76
2018-12-24T08:48:54.297Z,5.69
2018-12-24T08:49:54.672Z,5.64
2018-12-24T08:50:53.926Z,5.81
2018-12-24T08:51:53.903Z,5.74
2018-12-24T08:52:54.398Z,5.83
2018-12-24T08:53:53.852Z,5.90
2018-12-24T08:54:53.836Z,5.84
2018-12-24T08:55:53.793Z,5.80
2018-12-24T08:56:53.775Z,5.81
2018-12-24T08:57:54.477Z,5.81
2018-12-24T08:58:53.747Z,5.84
2018-12-24T08:59:53.722Z,5.74
2018-12-24T09:00:53.879Z,5.76
2018-12-24T09:01:53.853Z,5.70
2018-12-24T09:02:53.648Z,5.64
2018-12-24T09:03:53.622Z,5.67
2018-12-24T09:04:53.885Z,5.62
2018-12-24T09:05:53.543Z,5.65
2018-12-24T09:07:53.500Z,5.64
2018-12-24T09:08:53.686Z,5.59
2018-12-24T09:09:54.030Z,5.65
2018-12-24T09:10:53.417Z,5.72
2018-12-24T09:11:53.400Z,5.47
2018-12-24T09:12:53.366Z,5.52
2018-12-24T09:13:53.340Z,5.47
2018-12-24T09:14:53.326Z,5.56
2018-12-24T09:16:53.501Z,5.46
2018-12-24T09:17:53.247Z,5.51
2018-12-24T09:18:53.213Z,5.51
2018-12-24T09:19:53.190Z,5.52
2018-12-24T09:20:53.163Z,5.54
2018-12-24T09:21:53.144Z,5.52
2018-12-24T09:22:53.829Z,5.52
2018-12-24T09:23:53.105Z,5.62
2018-12-24T09:24:53.080Z,5.62
2018-12-24T09:25:53.045Z,5.51
2018-12-24T09:26:53.016Z,5.61
2018-12-24T09:27:54.411Z,5.56
2018-12-24T09:28:52.960Z,5.67
2018-12-24T09:29:53.253Z,5.72
2018-12-24T09:30:53.538Z,5.62
2018-12-24T09:31:53.094Z,5.62
2018-12-24T09:32:52.900Z,5.59
2018-12-24T09:33:53.357Z,5.51
2018-12-24T09:34:52.844Z,5.54
2018-12-24T09:35:53.699Z,5.52
2018-12-24T09:36:52.761Z,5.49
2018-12-24T09:37:52.735Z,5.56
2018-12-24T09:38:52.710Z,5.67
2018-12-24T09:39:52.686Z,5.62
2018-12-24T09:40:52.707Z,5.65
2018-12-24T09:41:52.635Z,5.70
2018-12-24T09:42:52.616Z,5.70
2018-12-24T09:43:52.581Z,5.62
2018-12-24T09:44:58.949Z,5.61
2018-12-24T09:45:52.908Z,5.74
2018-12-24T09:46:52.833Z,5.67
2018-12-24T09:47:52.745Z,5.76
2018-12-24T09:48:52.784Z,5.69
2018-12-24T09:49:52.436Z,5.77
2018-12-24T09:50:52.407Z,5.73
2018-12-24T09:51:52.601Z,5.73
2018-12-24T09:52:52.667Z,5.65
2018-12-24T09:53:52.645Z,5.59
2018-12-24T09:54:52.303Z,5.65
2018-12-24T09:55:52.621Z,5.61
2018-12-24T09:56:52.256Z,5.61
2018-12-24T09:57:52.235Z,5.65
2018-12-24T09:58:52.253Z,5.65
2018-12-24T09:59:52.216Z,5.70
2018-12-24T10:00:52.154Z,5.70
2018-12-24T10:01:52.131Z,5.69
2018-12-24T10:02:52.100Z,5.64
2018-12-24T10:03:52.076Z,5.62
2018-12-24T10:04:52.051Z,5.61
2018-12-24T10:05:52.021Z,5.49
2018-12-24T10:06:52.009Z,5.65
2018-12-24T10:07:51.973Z,5.73
2018-12-24T10:08:52.183Z,5.73
2018-12-24T10:09:52.256Z,5.73
2018-12-24T10:10:52.224Z,5.74
2018-12-24T10:11:51.889Z,5.79
2018-12-24T10:12:51.878Z,5.73
2018-12-24T10:13:51.821Z,5.83
2018-12-24T10:14:51.805Z,5.83
2018-12-24T10:15:51.796Z,5.87
2018-12-24T10:16:51.954Z,5.92
2018-12-24T10:17:52.256Z,5.95
2018-12-24T10:18:51.747Z,5.92
2018-12-24T10:19:51.695Z,5.99
2018-12-24T10:20:51.662Z,6.07
2018-12-24T10:21:51.650Z,6.06
2018-12-24T10:22:51.620Z,6.09
2018-12-24T10:24:52.160Z,6.02
2018-12-24T10:25:51.533Z,6.02
2018-12-24T10:26:51.495Z,6.09
2018-12-24T10:28:51.768Z,6.07
2018-12-24T10:29:51.415Z,6.01
2018-12-24T10:30:51.393Z,6.07
2018-12-24T10:31:51.368Z,6.01
2018-12-24T10:32:51.871Z,6.12
2018-12-24T10:33:51.323Z,6.43
2018-12-24T10:34:51.295Z,6.93
2018-12-24T10:35:51.298Z,7.67
2018-12-24T10:36:51.244Z,8.27
2018-12-24T10:37:51.244Z,8.97
2018-12-24T10:38:52.132Z,9.02
2018-12-24T10:39:51.504Z,9.02
2018-12-24T10:40:51.167Z,9.02
2018-12-24T10:41:57.393Z,9.34
2018-12-24T10:42:51.089Z,9.59
2018-12-24T10:43:51.075Z,9.72
2018-12-24T10:44:51.040Z,9.91
2018-12-24T10:45:51.044Z,10.17
2018-12-24T10:46:51.001Z,10.07
2018-12-24T10:47:50.998Z,9.92
2018-12-24T10:48:50.942Z,10.03
2018-12-24T10:49:50.972Z,10.45
2018-12-24T10:52:50.848Z,10.98
2018-12-24T10:53:51.253Z,11.27
2018-12-24T10:54:50.806Z,10.97
2018-12-24T10:55:50.785Z,10.89
2018-12-24T10:56:50.788Z,10.49
2018-12-24T10:57:50.729Z,9.94
2018-12-24T10:58:51.033Z,10.13
2018-12-24T10:59:51.015Z,10.58
2018-12-24T11:00:50.984Z,11.00
2018-12-24T11:01:50.962Z,10.43
2018-12-24T11:02:50.939Z,10.67
2018-12-24T11:03:50.589Z,10.75
2018-12-24T11:04:50.575Z,10.69
2018-12-24T11:05:50.557Z,10.48
2018-12-24T11:06:53.567Z,10.79
2018-12-24T11:07:50.811Z,11.12
2018-12-24T11:08:50.482Z,10.55
2018-12-24T11:09:50.455Z,10.21
2018-12-24T11:10:50.457Z,9.63
2018-12-24T11:11:50.723Z,10.13
2018-12-24T11:12:51.326Z,9.95
2018-12-24T11:13:50.686Z,9.33
2018-12-24T11:14:50.349Z,8.81
2018-12-24T11:15:51.055Z,8.44
2018-12-24T11:16:50.289Z,8.23
2018-12-24T11:17:50.278Z,8.06
2018-12-24T11:18:50.245Z,7.91
2018-12-24T11:19:50.221Z,7.98
2018-12-24T11:20:50.196Z,7.77
2018-12-24T11:21:50.175Z,7.66
2018-12-24T11:22:50.172Z,7.59
2018-12-24T11:23:50.160Z,7.55
2018-12-24T11:24:50.147Z,8.36
2018-12-24T11:25:50.300Z,8.78
2018-12-24T11:26:50.089Z,9.47
2018-12-24T11:27:50.337Z,9.76
2018-12-24T11:28:50.222Z,10.06
2018-12-24T11:29:50.204Z,9.82
2018-12-24T11:30:50.176Z,9.66
2018-12-24T11:31:50.266Z,9.02
2018-12-24T11:32:50.229Z,9.27
2018-12-24T11:33:50.137Z,9.64
2018-12-24T11:34:50.519Z,10.20
2018-12-24T11:35:49.852Z,10.41
2018-12-24T11:36:50.187Z,10.07
2018-12-24T11:37:49.825Z,10.02
2018-12-24T11:38:50.104Z,10.17
2018-12-24T11:39:49.782Z,9.94
2018-12-24T11:40:49.747Z,10.43
2018-12-24T11:41:49.713Z,10.89
2018-12-24T11:42:49.692Z,10.95
2018-12-24T11:43:49.662Z,10.89
2018-12-24T11:44:49.648Z,11.13
2018-12-24T11:45:49.614Z,11.19
2018-12-24T11:46:49.591Z,10.80
2018-12-24T11:47:49.567Z,10.36
2018-12-24T11:48:50.276Z,9.73
2018-12-24T11:49:49.557Z,10.05
2018-12-24T11:50:50.239Z,10.36
2018-12-24T11:51:49.484Z,10.41
2018-12-24T11:53:49.633Z,9.74
2018-12-24T11:54:49.731Z,9.21
2018-12-24T11:55:49.390Z,9.08
2018-12-24T11:56:49.359Z,8.72
2018-12-24T11:57:49.649Z,8.46
2018-12-24T11:58:49.324Z,8.50
2018-12-24T11:59:49.292Z,8.18
2018-12-24T12:00:49.281Z,8.05
2018-12-24T12:01:49.256Z,8.05
2018-12-24T12:02:49.228Z,8.66
2018-12-24T12:03:49.203Z,8.72
2018-12-24T12:04:49.171Z,9.19
2018-12-24T12:05:49.149Z,9.19
2018-12-24T12:06:49.126Z,8.86
2018-12-24T12:07:49.101Z,9.24
2018-12-24T12:08:49.077Z,9.42
2018-12-24T12:09:49.056Z,9.56
2018-12-24T12:10:49.039Z,9.90
2018-12-24T12:11:49.008Z,10.09
2018-12-24T12:12:48.983Z,10.02
2018-12-24T12:13:48.960Z,10.17
2018-12-24T12:14:48.947Z,10.34
2018-12-24T12:15:48.914Z,10.53
2018-12-24T12:16:48.891Z,10.67
2018-12-24T12:17:48.867Z,10.12
2018-12-24T12:18:48.844Z,9.59
2018-12-24T12:19:48.824Z,9.24
2018-12-24T12:20:52.645Z,9.03
2018-12-24T12:21:48.773Z,8.86
2018-12-24T12:22:48.750Z,9.21
2018-12-24T12:23:48.726Z,9.58
2018-12-24T12:24:48.711Z,9.33
2018-12-24T12:25:48.679Z,9.36
2018-12-24T12:26:48.664Z,9.77
2018-12-24T12:27:48.645Z,9.69
2018-12-24T12:28:48.619Z,9.26
2018-12-24T12:29:48.594Z,9.13
2018-12-24T12:30:48.563Z,9.66
2018-12-24T12:31:48.542Z,10.10
2018-12-24T12:32:48.516Z,10.36
2018-12-24T12:33:48.494Z,10.36
2018-12-24T12:34:48.470Z,10.31
2018-12-24T12:35:48.452Z,10.13
2018-12-24T12:36:48.426Z,10.21
2018-12-24T12:37:48.408Z,10.07
2018-12-24T12:38:48.381Z,10.24
2018-12-24T12:39:48.356Z,9.94
2018-12-24T12:40:48.334Z,9.47
2018-12-24T12:41:48.317Z,9.90
2018-12-24T12:42:48.287Z,9.99
2018-12-24T12:43:48.266Z,10.06
2018-12-24T12:44:48.249Z,10.05
2018-12-24T12:45:51.348Z,9.70
2018-12-24T12:46:48.196Z,9.40
2018-12-24T12:47:48.174Z,9.00
2018-12-24T12:48:48.149Z,8.81
2018-12-24T12:49:48.128Z,8.71
2018-12-24T12:50:48.104Z,8.63
2018-12-24T12:51:48.081Z,8.57
2018-12-24T12:52:48.059Z,8.50
2018-12-24T12:53:48.049Z,8.34
2018-12-24T12:54:48.013Z,8.42
2018-12-24T12:55:48.010Z,8.49
2018-12-24T12:56:47.966Z,8.27
2018-12-24T12:57:47.949Z,8.26
2018-12-24T12:58:47.922Z,8.27
2018-12-24T12:59:47.897Z,8.28
2018-12-24T13:00:47.874Z,8.27
2018-12-24T13:01:47.858Z,8.32
2018-12-24T13:02:47.828Z,8.34
2018-12-24T13:03:47.806Z,8.34
2018-12-24T13:04:47.781Z,8.42
2018-12-24T13:05:47.761Z,8.26
2018-12-24T13:06:47.739Z,8.20
2018-12-24T13:07:47.720Z,8.20
2018-12-24T13:08:47.702Z,8.14
2018-12-24T13:09:47.685Z,8.13
2018-12-24T13:10:47.650Z,7.96
2018-12-24T13:11:47.622Z,8.03
2018-12-24T13:12:47.599Z,7.99
2018-12-24T13:13:47.576Z,7.93
2018-12-24T13:14:47.551Z,7.90
2018-12-24T13:15:47.544Z,7.90
2018-12-24T13:16:47.514Z,7.90
2018-12-24T13:17:47.494Z,7.78
2018-12-24T13:18:47.466Z,7.67
2018-12-24T13:19:47.442Z,7.77
2018-12-24T13:20:47.410Z,7.72
2018-12-24T13:21:47.388Z,7.64
2018-12-24T13:22:47.370Z,7.67
2018-12-24T13:23:47.352Z,7.62
2018-12-24T13:24:47.326Z,7.51
2018-12-24T13:25:47.300Z,7.48
2018-12-24T13:26:47.279Z,7.43
2018-12-24T13:27:47.265Z,7.32